createdAt,value
2022-11-26T00:02:21.072Z,7.07
2022-11-26T00:05:13.293Z,5.57
2022-11-26T00:08:00.865Z,5.97
2022-11-26T00:10:51.364Z,5.63
2022-11-26T00:13:37.686Z,5.77
2022-11-26T00:16:24.023Z,5.23
2022-11-26T00:19:10.781Z,5.03
2022-11-26T00:21:57.263Z,6.47
2022-11-26T00:24:43.619Z,5.07
2022-11-26T00:27:29.927Z,5.67
2022-11-26T00:30:22.243Z,4.67
2022-11-26T00:33:08.672Z,5.10
2022-11-26T00:35:59.154Z,5.77
2022-11-26T00:38:53.735Z,5.37
2022-11-26T00:41:40.056Z,5.97
2022-11-26T00:44:26.358Z,4.70
2022-11-26T00:47:12.630Z,4.57
2022-11-26T00:49:58.936Z,4.73
2022-11-26T00:52:46.924Z,4.20
2022-11-26T00:55:34.648Z,4.60
2022-11-26T00:58:24.044Z,5.43
2022-11-26T01:01:13.560Z,4.53
2022-11-26T01:03:59.897Z,5.60
2022-11-26T01:06:46.875Z,4.73
2022-11-26T01:09:33.215Z,4.93
2022-11-26T01:12:19.552Z,4.90
2022-11-26T01:15:06.124Z,5.23
2022-11-26T01:17:53.462Z,5.37
2022-11-26T01:20:40.497Z,4.93
2022-11-26T01:23:26.846Z,5.23
2022-11-26T01:26:34.642Z,5.63
2022-11-26T01:29:21.305Z,5.10
2022-11-26T01:32:09.245Z,5.47
2022-11-26T01:34:55.329Z,5.90
2022-11-26T01:37:43.193Z,4.37
2022-11-26T01:40:45.289Z,3.97
2022-11-26T01:43:41.895Z,4.57
2022-11-26T01:46:30.793Z,4.50
2022-11-26T01:49:18.840Z,4.97
2022-11-26T01:52:11.336Z,5.20
2022-11-26T01:54:57.819Z,4.43
2022-11-26T01:57:44.643Z,4.60
2022-11-26T02:00:31.021Z,4.50
2022-11-26T02:03:19.323Z,4.40
2022-11-26T02:06:11.059Z,5.07
2022-11-26T02:09:00.428Z,4.83
2022-11-26T02:11:46.996Z,4.70
2022-11-26T02:14:36.921Z,4.63
2022-11-26T02:17:40.027Z,4.70
2022-11-26T02:20:45.060Z,5.90
2022-11-26T02:23:42.737Z,5.50
2022-11-26T02:26:47.469Z,7.03
2022-11-26T02:29:55.140Z,7.67
2022-11-26T02:32:59.223Z,5.57
2022-11-26T02:35:50.308Z,5.00
2022-11-26T02:38:38.233Z,4.87
2022-11-26T02:41:24.801Z,4.73
2022-11-26T02:44:12.120Z,4.90
2022-11-26T02:47:06.260Z,4.40
2022-11-26T02:49:54.097Z,4.43
2022-11-26T02:52:42.591Z,5.17
2022-11-26T02:55:33.621Z,4.07
2022-11-26T02:58:20.486Z,4.90
2022-11-26T03:01:15.571Z,5.10
2022-11-26T03:04:07.840Z,4.27
2022-11-26T03:06:57.661Z,4.43
2022-11-26T03:09:56.821Z,4.67
2022-11-26T03:12:42.944Z,4.23
2022-11-26T03:15:29.087Z,4.40
2022-11-26T03:18:15.621Z,3.83
2022-11-26T03:21:02.112Z,4.07
2022-11-26T03:23:48.321Z,3.83
2022-11-26T03:26:34.568Z,3.50
2022-11-26T03:29:20.890Z,3.90
2022-11-26T03:32:07.924Z,3.90
2022-11-26T03:34:54.299Z,4.27
2022-11-26T03:37:40.598Z,3.90
2022-11-26T03:40:26.832Z,3.37
2022-11-26T03:43:12.908Z,4.67
2022-11-26T03:45:59.340Z,4.10
2022-11-26T03:48:45.901Z,6.17
2022-11-26T03:51:32.462Z,4.03
2022-11-26T03:54:19.087Z,3.57
2022-11-26T03:57:05.349Z,4.43
2022-11-26T03:59:51.681Z,3.70
2022-11-26T04:02:37.973Z,3.23
2022-11-26T04:05:24.489Z,4.70
2022-11-26T04:08:10.974Z,4.07
2022-11-26T04:10:57.597Z,3.83
2022-11-26T04:13:43.909Z,5.10
2022-11-26T04:16:30.256Z,5.23
2022-11-26T04:19:16.683Z,3.57
2022-11-26T04:22:03.151Z,3.67
2022-11-26T04:24:49.559Z,4.73
2022-11-26T04:27:35.895Z,4.07
2022-11-26T04:30:22.900Z,4.10
2022-11-26T04:33:09.740Z,4.33
2022-11-26T04:35:56.389Z,4.63
2022-11-26T04:38:42.637Z,4.77
2022-11-26T04:41:28.897Z,4.27
2022-11-26T04:44:15.177Z,3.93
2022-11-26T04:47:01.449Z,4.67
2022-11-26T04:49:47.816Z,4.80
2022-11-26T04:52:33.936Z,4.50
2022-11-26T04:55:20.240Z,4.40
2022-11-26T04:58:07.140Z,5.90
2022-11-26T05:00:53.486Z,4.87
2022-11-26T05:03:40.079Z,5.57
2022-11-26T05:06:26.417Z,6.23
2022-11-26T05:09:12.438Z,5.50
2022-11-26T05:11:58.673Z,6.17
2022-11-26T05:14:44.866Z,5.27
2022-11-26T05:17:31.488Z,5.20
2022-11-26T05:20:17.984Z,4.80
2022-11-26T05:23:04.639Z,4.70
2022-11-26T05:25:51.342Z,4.73
2022-11-26T05:28:37.824Z,5.20
2022-11-26T05:31:24.025Z,5.27
2022-11-26T05:34:10.359Z,4.77
2022-11-26T05:36:56.808Z,5.77
2022-11-26T05:39:43.013Z,5.73
2022-11-26T05:42:29.470Z,6.67
2022-11-26T05:45:16.502Z,5.77
2022-11-26T05:48:02.816Z,6.10
2022-11-26T05:50:54.331Z,5.50
2022-11-26T05:53:41.152Z,6.03
2022-11-26T05:56:27.585Z,5.80
2022-11-26T05:59:13.793Z,5.50
2022-11-26T06:02:00.126Z,6.27
2022-11-26T06:04:46.772Z,5.67
2022-11-26T06:07:33.132Z,5.57
2022-11-26T06:10:19.809Z,6.10
2022-11-26T06:13:06.224Z,7.00
2022-11-26T06:15:52.649Z,6.13
2022-11-26T06:18:39.622Z,7.10
2022-11-26T06:21:25.879Z,7.73
2022-11-26T06:24:11.963Z,7.60
2022-11-26T06:26:58.183Z,7.60
2022-11-26T06:29:44.995Z,7.83
2022-11-26T06:32:31.853Z,6.30
2022-11-26T06:35:18.329Z,7.43
2022-11-26T06:38:05.124Z,6.87
2022-11-26T06:41:02.916Z,7.17
2022-11-26T06:43:49.660Z,4.97
2022-11-26T06:46:36.447Z,5.33
2022-11-26T06:49:22.800Z,7.87
2022-11-26T06:52:09.340Z,6.77
2022-11-26T06:54:55.462Z,8.33
2022-11-26T06:57:41.699Z,7.63
2022-11-26T07:00:28.070Z,6.67
2022-11-26T07:03:14.324Z,7.50
2022-11-26T07:06:00.680Z,6.47
2022-11-26T07:08:48.095Z,9.77
2022-11-26T07:11:35.669Z,7.83
2022-11-26T07:14:22.627Z,9.03
2022-11-26T07:17:09.537Z,8.47
2022-11-26T07:19:55.732Z,9.77
2022-11-26T07:22:41.984Z,11.07
2022-11-26T07:25:29.707Z,9.63
2022-11-26T07:28:16.241Z,9.63
2022-11-26T07:31:16.245Z,9.50
2022-11-26T07:34:03.895Z,9.27
2022-11-26T07:36:53.973Z,7.37
2022-11-26T07:39:43.049Z,6.57
2022-11-26T07:42:33.676Z,8.23
2022-11-26T07:45:20.261Z,9.43
2022-11-26T07:48:06.989Z,10.13
2022-11-26T07:50:53.377Z,10.00
2022-11-26T07:53:39.642Z,10.60
2022-11-26T07:56:27.161Z,11.47
2022-11-26T07:59:13.668Z,11.57
2022-11-26T08:02:00.261Z,11.53
2022-11-26T08:04:47.078Z,11.33
2022-11-26T08:07:35.038Z,10.97
2022-11-26T08:10:21.656Z,10.63
2022-11-26T08:13:08.197Z,14.00
2022-11-26T08:15:54.477Z,12.40
2022-11-26T08:18:41.975Z,11.50
2022-11-26T08:21:28.811Z,10.13
2022-11-26T08:24:18.919Z,10.20
2022-11-26T08:27:05.482Z,10.17
2022-11-26T08:29:51.921Z,10.40
2022-11-26T08:32:38.203Z,10.87
2022-11-26T08:35:38.626Z,11.23
2022-11-26T08:38:31.583Z,10.93
2022-11-26T08:41:18.119Z,10.83
2022-11-26T08:44:07.083Z,11.33
2022-11-26T08:46:54.286Z,12.50
2022-11-26T08:49:40.785Z,11.97
2022-11-26T08:52:27.495Z,11.87
2022-11-26T08:55:14.107Z,9.17
2022-11-26T08:58:00.687Z,10.77
2022-11-26T09:00:47.263Z,8.80
2022-11-26T09:03:33.518Z,8.73
2022-11-26T09:06:21.312Z,8.97
2022-11-26T09:09:15.057Z,10.07
2022-11-26T09:12:02.469Z,9.07
2022-11-26T09:14:49.069Z,10.23
2022-11-26T09:17:35.633Z,9.67
2022-11-26T09:20:22.304Z,11.33
2022-11-26T09:23:08.743Z,11.90
2022-11-26T09:25:55.422Z,11.17
2022-11-26T09:28:41.773Z,11.47
2022-11-26T09:31:28.327Z,8.60
2022-11-26T09:34:15.808Z,9.43
2022-11-26T09:37:02.574Z,8.63
2022-11-26T09:39:50.745Z,9.50
2022-11-26T09:42:59.234Z,8.30
2022-11-26T09:45:55.701Z,8.33
2022-11-26T09:48:43.265Z,8.17
2022-11-26T09:51:32.848Z,8.00
2022-11-26T09:54:23.038Z,7.57
2022-11-26T09:57:21.998Z,6.03
2022-11-26T10:00:32.774Z,7.60
2022-11-26T10:03:24.468Z,5.47
2022-11-26T10:06:19.801Z,6.50
2022-11-26T10:09:23.364Z,6.90
2022-11-26T10:12:25.534Z,5.50
2022-11-26T10:15:26.118Z,6.80
2022-11-26T10:18:42.384Z,6.43
2022-11-26T10:21:57.007Z,5.63
2022-11-26T10:24:42.010Z,8.57
2022-11-26T10:27:34.297Z,4.67
2022-11-26T10:30:30.689Z,5.50
2022-11-26T10:33:20.248Z,5.20
2022-11-26T10:36:16.446Z,5.03
2022-11-26T10:39:03.310Z,4.90
2022-11-26T10:41:50.156Z,5.27
2022-11-26T10:44:40.785Z,4.77
2022-11-26T10:47:29.827Z,5.10
2022-11-26T10:50:46.782Z,4.67
2022-11-26T10:54:00.630Z,4.60
2022-11-26T10:56:47.806Z,4.17
2022-11-26T10:59:43.447Z,5.63
2022-11-26T11:02:32.377Z,4.43
2022-11-26T11:05:20.374Z,4.47
2022-11-26T11:08:13.042Z,4.37
2022-11-26T11:11:02.392Z,4.83
2022-11-26T11:13:49.784Z,5.57
2022-11-26T11:16:43.253Z,4.43
2022-11-26T11:19:30.733Z,4.03
2022-11-26T11:22:20.985Z,4.00
2022-11-26T11:25:21.900Z,4.87
2022-11-26T11:28:18.366Z,4.20
2022-11-26T11:31:17.979Z,3.90
2022-11-26T11:34:33.885Z,4.43
2022-11-26T11:37:21.859Z,9.23
2022-11-26T11:40:18.139Z,4.97
2022-11-26T11:43:06.976Z,3.87
2022-11-26T11:46:13.547Z,5.70
2022-11-26T11:49:16.210Z,4.13
2022-11-26T11:52:35.711Z,4.10
2022-11-26T11:56:02.700Z,4.47
2022-11-26T11:59:47.495Z,3.57
2022-11-26T12:03:04.882Z,4.83
2022-11-26T12:06:00.505Z,5.13
2022-11-26T12:08:55.786Z,4.27
2022-11-26T12:11:52.112Z,3.27
2022-11-26T12:14:47.720Z,3.30
2022-11-26T12:17:43.666Z,3.40
2022-11-26T12:20:41.704Z,5.57
2022-11-26T12:23:53.512Z,3.57
2022-11-26T12:26:39.892Z,2.73
2022-11-26T12:29:36.961Z,3.20
2022-11-26T12:32:49.325Z,2.83
2022-11-26T12:35:40.128Z,3.00
2022-11-26T12:38:34.896Z,3.50
2022-11-26T12:41:27.355Z,2.37
2022-11-26T12:44:22.330Z,2.83
2022-11-26T12:47:26.056Z,3.10
2022-11-26T12:50:20.854Z,2.90
2022-11-26T12:53:51.720Z,2.80
2022-11-26T12:56:50.924Z,2.53
2022-11-26T12:59:44.098Z,4.03
2022-11-26T13:02:32.000Z,2.77
2022-11-26T13:05:20.802Z,2.97
2022-11-26T13:08:26.485Z,2.70
2022-11-26T13:11:31.333Z,3.00
2022-11-26T13:14:35.146Z,4.40
2022-11-26T13:17:37.159Z,2.30
2022-11-26T13:20:52.420Z,2.83
2022-11-26T13:23:50.609Z,2.47
2022-11-26T13:26:45.904Z,3.00
2022-11-26T13:29:35.678Z,2.87
2022-11-26T13:32:42.802Z,2.40
2022-11-26T13:35:51.210Z,3.10
2022-11-26T13:38:53.170Z,2.73
2022-11-26T13:42:14.821Z,2.60
2022-11-26T13:45:45.352Z,2.50
2022-11-26T13:48:40.428Z,3.40
2022-11-26T13:51:30.925Z,3.10
2022-11-26T13:54:41.905Z,2.80
2022-11-26T13:57:39.441Z,3.40
2022-11-26T14:00:33.667Z,3.17
2022-11-26T14:03:45.928Z,2.83
2022-11-26T14:06:32.768Z,3.10
2022-11-26T14:09:45.156Z,3.93
2022-11-26T14:13:02.758Z,3.03
2022-11-26T14:15:55.503Z,4.17
2022-11-26T14:19:02.816Z,4.80
2022-11-26T14:21:59.647Z,4.13
2022-11-26T14:24:58.926Z,4.20
2022-11-26T14:27:55.613Z,3.10
2022-11-26T14:30:41.748Z,3.10
2022-11-26T14:33:30.350Z,3.20
2022-11-26T14:36:23.000Z,2.90
2022-11-26T14:39:09.279Z,3.30
2022-11-26T14:42:03.815Z,4.90
2022-11-26T14:45:15.686Z,5.60
2022-11-26T14:48:03.943Z,3.63
2022-11-26T14:50:51.653Z,2.73
2022-11-26T14:53:46.803Z,3.67
2022-11-26T14:56:41.831Z,3.00
2022-11-26T14:59:31.935Z,3.50
2022-11-26T15:02:23.889Z,3.00
2022-11-26T15:05:15.183Z,4.20
2022-11-26T15:08:04.754Z,3.50
2022-11-26T15:11:21.371Z,3.87
2022-11-26T15:14:29.783Z,3.20
2022-11-26T15:17:19.251Z,2.90
2022-11-26T15:20:08.355Z,2.80
2022-11-26T15:22:58.290Z,3.70
2022-11-26T15:25:50.924Z,4.50
2022-11-26T15:28:38.682Z,4.50
2022-11-26T15:31:25.381Z,3.67
2022-11-26T15:34:15.268Z,4.57
2022-11-26T15:37:01.579Z,5.13
2022-11-26T15:39:47.829Z,4.93
2022-11-26T15:42:34.344Z,3.90
2022-11-26T15:45:23.038Z,3.93
2022-11-26T15:48:51.943Z,4.87
2022-11-26T15:51:49.956Z,4.43
2022-11-26T15:55:04.550Z,4.63
2022-11-26T15:57:51.729Z,4.90
2022-11-26T16:00:42.269Z,4.53
2022-11-26T16:03:41.325Z,5.00
2022-11-26T16:06:32.390Z,4.80
2022-11-26T16:09:34.348Z,4.97
2022-11-26T16:12:33.195Z,4.87
2022-11-26T16:15:21.020Z,4.57
2022-11-26T16:18:16.393Z,4.00
2022-11-26T16:21:07.298Z,6.80
2022-11-26T16:24:07.299Z,4.97
2022-11-26T16:26:58.248Z,5.77
2022-11-26T16:29:45.455Z,5.93
2022-11-26T16:32:31.772Z,4.70
2022-11-26T16:35:44.218Z,6.73
2022-11-26T16:38:26.524Z,5.27
2022-11-26T16:41:13.876Z,6.43
2022-11-26T16:44:00.273Z,5.80
2022-11-26T16:46:48.826Z,5.60
2022-11-26T16:49:35.015Z,5.53
2022-11-26T16:52:21.892Z,5.87
2022-11-26T16:55:13.735Z,4.80
2022-11-26T16:58:02.334Z,6.00
2022-11-26T17:00:51.099Z,5.60
2022-11-26T17:03:37.690Z,5.77
2022-11-26T17:06:27.872Z,6.50
2022-11-26T17:09:19.267Z,7.77
2022-11-26T17:12:06.509Z,5.50
2022-11-26T17:17:45.053Z,5.67
2022-11-26T17:20:31.483Z,5.87
2022-11-26T17:23:18.739Z,5.90
2022-11-26T17:26:31.688Z,6.30
2022-11-26T17:29:17.995Z,6.23
2022-11-26T17:32:04.992Z,7.30
2022-11-26T17:34:51.584Z,6.23
2022-11-26T17:37:38.206Z,6.67
2022-11-26T17:40:24.950Z,6.57
2022-11-26T17:43:13.273Z,6.83
2022-11-26T17:46:02.137Z,6.77
2022-11-26T17:48:49.960Z,6.80
2022-11-26T17:51:37.376Z,7.07
2022-11-26T17:54:23.559Z,6.90
2022-11-26T17:57:11.194Z,7.70
2022-11-26T17:59:57.876Z,10.07
2022-11-26T18:02:46.223Z,9.57
2022-11-26T18:05:33.061Z,10.40
2022-11-26T18:08:20.494Z,10.30
2022-11-26T18:11:06.844Z,8.80
2022-11-26T18:13:53.308Z,9.40
2022-11-26T18:16:40.188Z,7.80
2022-11-26T18:19:26.955Z,7.97
2022-11-26T18:22:16.704Z,7.47
2022-11-26T18:25:03.473Z,7.37
2022-11-26T18:27:51.299Z,8.73
2022-11-26T18:30:37.649Z,9.53
2022-11-26T18:33:24.245Z,9.47
2022-11-26T18:36:10.924Z,10.27
2022-11-26T18:38:57.634Z,9.70
2022-11-26T18:41:43.952Z,11.73
2022-11-26T18:44:30.341Z,13.10
2022-11-26T18:47:16.773Z,16.50
2022-11-26T18:50:03.680Z,16.93
2022-11-26T18:52:49.835Z,15.37
2022-11-26T18:55:39.924Z,13.53
2022-11-26T18:58:26.709Z,12.53
2022-11-26T19:01:14.255Z,11.63
2022-11-26T19:04:01.901Z,10.73
2022-11-26T19:06:48.276Z,10.00
2022-11-26T19:09:34.587Z,11.70
2022-11-26T19:12:20.855Z,11.37
2022-11-26T19:15:08.328Z,10.80
2022-11-26T19:17:55.082Z,10.63
2022-11-26T19:20:56.333Z,11.90
2022-11-26T19:23:42.976Z,13.27
